Flight Track Log - Related Links

Times and Time Zones

All times are in EDT time to prevent confusion due to time zone crossing. See the ASQ5874 flight status page for this flight to view local times or setup timezone preferences in your user account.

Time Position Orientation Groundspeed Altitude Reporting Facility
EDT Latitude Longitude Course Direction KTS MPH feet Rate Location/Type
Wed 01:52:51 PM 38.9333 -77.5500 270° West 206 237 2,400  Level Potomac TRACON
Wed 01:55:00 PM 38.8667 -77.9168 293° West  Level FlightAware Approximate
Wed 01:55:01 PM 38.8756 -77.7300 248° West 455 524 26,000  Level Washington Center
Wed 01:56:00 PM 38.8995 -78.0311 288° West  Level FlightAware Approximate
Wed 01:56:02 PM 38.8739 -77.8261 269° West 366 421 9,600  Level Washington Center
Wed 01:57:00 PM 38.9285 -78.1472 288° West  Level FlightAware Approximate
Wed 01:57:03 PM 38.8717 -77.9381 269° West 326 375 10,800  Level Washington Center
Wed 01:58:00 PM 38.9500 -78.2619 270° West  Level FlightAware Approximate
Wed 01:58:03 PM 38.9072 -78.0458 293° West 326 375 12,200  Level Washington Center
Wed 01:59:01 PM 38.9422 -78.1617 291° West 338 389 13,600 1,373 Climbing Washington Center
Wed 02:00:01 PM 38.9647 -78.2828 283° West 350 403 14,900 1,350 Climbing Washington Center
Wed 02:01:01 PM 38.9681 -78.4111 272° West 355 409 16,300 1,289 Climbing Washington Center
Wed 02:02:02 PM 38.9711 -78.5367 272° West 355 409 17,500 1,041 Climbing Washington Center
Wed 02:03:02 PM 38.9742 -78.6650 272° West 355 409 18,400 992 Climbing Washington Center
Wed 02:04:03 PM 38.9792 -78.7958 273° West 365 420 19,500 1,140 Climbing Washington Center
Wed 02:05:03 PM 38.9819 -78.9269 272° West 365 420 20,700 1,119 Climbing Washington Center
Wed 02:06:01 PM 38.9864 -79.0581 273° West 365 420 21,700 1,261 Climbing Washington Center
Wed 02:07:02 PM 38.9889 -79.1917 271° West 370 426 23,200 1,426 Climbing Washington Center
Wed 02:08:03 PM 38.9933 -79.3200 273° West 370 426 24,600 1,261 Climbing Washington Center
Wed 02:09:01 PM 38.9953 -79.4511 271° West 365 420 25,700 706 Climbing Washington Center
Wed 02:10:02 PM 38.9972 -79.5822 271° West 365 420 26,000 101 Climbing Washington Center
Wed 02:11:59 PM 39.0000 -79.8528 271° West 411 473 26,000  Level Indianapolis Center
Wed 02:13:01 PM 39.0033 -80.0300 271° West 425 489 26,000  Level Indianapolis Center
Wed 02:14:03 PM 39.0042 -80.1792 270° West 430 495 26,000  Level Indianapolis Center
Wed 02:15:05 PM 39.0067 -80.3336 271° West 433 498 26,000  Level Indianapolis Center
Wed 02:16:07 PM 39.0078 -80.4897 271° West 437 503 26,000  Level Indianapolis Center
Wed 02:17:09 PM 39.0086 -80.6458 270° West 437 503 26,000  Level Indianapolis Center
Wed 02:18:11 PM 39.0111 -80.8033 271° West 440 506 26,000 -290 Level Indianapolis Center
Wed 02:19:13 PM 39.0381 -80.9858 281° West 452 520 25,400 -774 Descending Indianapolis Center
Wed 02:20:15 PM 39.0967 -81.1281 298° West 453 521 24,400 -1,016 Descending Indianapolis Center
Wed 02:21:17 PM 39.1542 -81.2686 298° West 448 516 23,300 -968 Descending Indianapolis Center
Wed 02:22:19 PM 39.2089 -81.4044 298° West 435 501 22,400 -968 Descending Indianapolis Center
Wed 02:23:21 PM 39.2628 -81.5361 298° West 423 487 21,300 -1,122 Descending Indianapolis Center
Wed 02:24:22 PM 39.3264 -81.6911 298° West 412 474 20,100 -1,073 Descending Indianapolis Center
Wed 02:25:24 PM 39.3778 -81.8189 298° West 404 465 19,100 -1,018 Descending Indianapolis Center
Wed 02:26:14 PM 39.4203 -81.9328 296° West 398 458 18,200 -1,161 Descending Indianapolis Center
Wed 02:27:28 PM 39.4792 -82.0711 299° West 396 456 16,700 -1,734 Descending Indianapolis Center
Wed 02:28:22 PM 39.5236 -82.1942 295° West 393 452 14,500 -2,504 Descending Indianapolis Center
Wed 02:29:23 PM 39.5728 -82.3125 298° West 367 422 11,900 -1,875 Descending Indianapolis Center
Wed 02:30:30 PM 39.6367 -82.4275 306° West 330 380 10,500 -857 Descending Indianapolis Center
Wed 02:31:36 PM 39.6992 -82.5258 310° West 328 377 10,000 -246 Descending Indianapolis Center
Wed 02:32:32 PM 39.7539 -82.6189 307° West 345 397 10,000  Level Indianapolis Center
Wed 02:33:33 PM 39.8161 -82.7233 308° West 348 400 10,000 -692 Level Indianapolis Center
Wed 02:34:42 PM 39.8447 -82.8178 292° West 278 320 8,500 -1,511 Descending Indianapolis Center
Wed 02:35:44 PM 39.8697 -82.9117 289° West 271 312 6,700 -1,842 Descending Indianapolis Center
Wed 02:36:36 PM 39.8917 -83.0008 288° West 259 298 5,000 -1,962 Descending Indianapolis Center

Login

Don't have an account? Register now (free) for customized features, flight alerts, and more!